Time;durP1;ratioP1;P1;durP2;ratioP2;P2;SDS_P1;SDS_P2;PMS_P1;PMS_P2;Temp;Humidity;BMP_temperature;BMP_pressure;BME280_temperature;BME280_humidity;BME280_pressure;Samples;Min_cycle;Max_cycle;Signal;HPM_P1;HPM_P2
2021/01/26 00:00:31;;;;;;;3.12;1.92;;;;;;;2.91;49.13;95020.45;1800886;79;21142;-56
2021/01/26 00:02:58;;;;;;;3.10;2.10;;;;;;;2.89;49.38;95027.39;1803700;78;21040;-55
2021/01/26 00:05:26;;;;;;;3.25;2.55;;;;;;;2.87;49.28;95036.92;1802570;79;21116;-57
2021/01/26 00:07:55;;;;;;;2.47;1.82;;;;;;;2.89;49.47;95031.70;1796892;79;22108;-56
2021/01/26 00:10:22;;;;;;;2.00;1.77;;;;;;;2.88;49.51;95035.20;1807108;79;21589;-56
2021/01/26 00:12:50;;;;;;;1.87;1.70;;;;;;;2.82;49.62;95038.96;1795503;79;21493;-56
2021/01/26 00:15:17;;;;;;;2.52;1.82;;;;;;;2.79;49.76;95046.03;1798162;79;21126;-57
2021/01/26 00:17:46;;;;;;;2.87;1.95;;;;;;;2.74;50.11;95052.72;1805199;79;21130;-56
2021/01/26 00:20:16;;;;;;;2.55;1.80;;;;;;;2.72;50.25;95055.84;1799179;79;21385;-56
2021/01/26 00:22:43;;;;;;;3.00;1.80;;;;;;;2.68;50.13;95060.35;1803804;77;21230;-57
2021/01/26 00:25:16;;;;;;;2.47;1.52;;;;;;;2.61;50.36;95062.11;1805747;79;21153;-57
2021/01/26 00:27:43;;;;;;;2.70;1.95;;;;;;;2.56;50.53;95071.36;1792411;77;21116;-56
2021/01/26 00:30:24;;;;;;;2.55;2.02;;;;;;;2.52;50.72;95060.96;1802753;78;21790;-56
2021/01/26 00:32:51;;;;;;;2.77;1.90;;;;;;;2.49;50.81;95069.64;1804123;79;21354;-57
2021/01/26 00:35:22;;;;;;;4.28;2.02;;;;;;;2.50;50.77;95077.70;1801043;78;21064;-61
2021/01/26 00:37:50;;;;;;;2.50;1.90;;;;;;;2.52;50.80;95080.98;1775380;79;21476;-56
2021/01/26 00:40:18;;;;;;;2.45;1.92;;;;;;;2.57;50.75;95078.13;1801937;79;21040;-56
2021/01/26 00:42:46;;;;;;;2.08;1.60;;;;;;;2.59;50.57;95083.97;1799741;77;21589;-56
2021/01/26 00:45:15;;;;;;;2.55;2.15;;;;;;;2.62;50.77;95087.63;1802174;79;21355;-56
2021/01/26 00:47:44;;;;;;;2.33;1.85;;;;;;;2.66;50.72;95087.77;1807405;79;21141;-55
2021/01/26 00:50:12;;;;;;;2.05;1.85;;;;;;;2.71;50.60;95088.77;1780523;79;21141;-55
2021/01/26 00:52:40;;;;;;;3.10;2.05;;;;;;;2.78;50.65;95091.77;1800932;79;21047;-55
2021/01/26 00:55:13;;;;;;;3.35;2.37;;;;;;;2.84;50.59;95093.94;1800503;79;21558;-56
2021/01/26 00:57:40;;;;;;;2.30;2.00;;;;;;;2.90;50.38;95098.68;1798002;79;21381;-56
2021/01/26 01:00:17;;;;;;;1.73;1.63;;;;;;;2.94;50.06;95094.55;1801293;79;21463;-57
2021/01/26 01:02:45;;;;;;;2.50;1.70;;;;;;;2.95;49.95;95100.02;1798741;79;21853;-58
2021/01/26 01:05:15;;;;;;;2.98;2.20;;;;;;;2.93;50.13;95096.73;1798585;79;21135;-58
2021/01/26 01:07:42;;;;;;;;;;;;;;;2.96;50.10;95095.73;1776601;79;21548;-55
2021/01/26 01:10:12;;;;;;;2.33;2.02;;;;;;;2.98;50.13;95099.45;1809027;79;21528;-55
2021/01/26 01:12:40;;;;;;;2.72;1.98;;;;;;;2.97;49.98;95093.52;1800779;79;21072;-56
2021/01/26 01:15:10;;;;;;;3.02;2.30;;;;;;;3.00;49.97;95095.88;1787447;79;21546;-57
2021/01/26 01:17:37;;;;;;;2.80;2.15;;;;;;;3.03;50.13;95100.81;1794973;79;21599;-57
2021/01/26 01:20:08;;;;;;;2.87;2.30;;;;;;;3.10;50.06;95098.20;1798038;78;21095;-57
2021/01/26 01:22:36;;;;;;;2.80;2.30;;;;;;;3.14;49.79;95098.82;1801899;79;21454;-55
2021/01/26 01:25:06;;;;;;;3.08;2.27;;;;;;;3.13;49.78;95099.77;1799486;77;21076;-54
2021/01/26 01:27:34;;;;;;;3.70;1.95;;;;;;;3.10;49.54;95110.20;1799690;79;21636;-56
2021/01/26 01:30:04;;;;;;;2.60;2.12;;;;;;;3.02;49.78;95104.28;1800820;79;21158;-57
2021/01/26 01:32:32;;;;;;;3.70;2.50;;;;;;;3.02;49.81;95104.75;1804195;79;21187;-56
2021/01/26 01:35:00;;;;;;;3.77;2.50;;;;;;;3.02;49.72;95104.28;1798784;78;21281;-56
2021/01/26 01:37:27;;;;;;;3.47;2.55;;;;;;;3.01;49.51;95105.22;1794534;79;21236;-56
2021/01/26 01:39:55;;;;;;;3.20;2.17;;;;;;;3.01;49.57;95109.06;1791439;78;21064;-56
2021/01/26 01:42:23;;;;;;;4.78;2.72;;;;;;;2.97;49.46;95103.77;1798510;78;21142;-56
2021/01/26 01:44:51;;;;;;;4.87;2.58;;;;;;;2.94;49.44;95109.08;1798766;79;21555;-55
2021/01/26 01:47:34;;;;;;;4.33;2.87;;;;;;;2.91;49.52;95109.27;1780872;79;21386;-56
2021/01/26 01:50:03;;;;;;;4.30;3.17;;;;;;;2.90;49.67;95112.77;1772176;79;21179;-54
2021/01/26 01:52:33;;;;;;;;;;;;;;;2.85;50.03;95103.28;1797336;79;21158;-56
2021/01/26 01:55:12;;;;;;;4.15;2.90;;;;;;;2.84;50.10;95108.03;1797807;79;20259;-55
2021/01/26 01:57:52;;;;;;;2.83;1.60;;;;;;;2.80;49.87;95112.53;1740844;81;21183;-56
2021/01/26 02:00:27;;;;;;;2.63;1.80;;;;;;;2.76;49.46;95114.47;1875249;75;22062;-56
2021/01/26 02:03:07;;;;;;;3.75;2.40;;;;;;;2.66;49.55;95118.51;1777161;79;21054;-56
2021/01/26 02:05:35;;;;;;;4.83;2.90;;;;;;;2.62;49.64;95117.54;1748160;81;21220;-57
2021/01/26 02:08:04;;;;;;;4.60;2.77;;;;;;;2.57;49.81;95122.48;1769204;80;20966;-56
2021/01/26 02:10:31;;;;;;;3.67;2.35;;;;;;;2.55;50.06;95120.95;1826854;77;21137;-56
2021/01/26 02:12:59;;;;;;;3.65;2.70;;;;;;;2.54;50.15;95120.10;1832984;77;21163;-55
2021/01/26 02:15:28;;;;;;;2.30;2.00;;;;;;;2.57;50.18;95124.22;1839285;77;21168;-56
2021/01/26 02:18:30;;;;;;;4.53;2.87;;;;;;;2.56;50.29;95122.56;1835045;77;21346;-56
2021/01/26 02:21:38;;;;;;;6.47;2.92;;;;;;;2.55;50.34;95117.91;1810986;79;21085;-56
2021/01/26 02:24:26;;;;;;;;;;;;;;;2.47;50.45;95116.76;1847478;77;21473;-56
2021/01/26 02:27:42;;;;;;;5.87;2.72;;;;;;;2.40;50.73;95122.69;1832436;77;20230;-55
2021/01/26 02:30:42;;;;;;;4.75;2.83;;;;;;;2.38;50.89;95124.52;1845329;77;21093;-56
2021/01/26 02:33:57;;;;;;;5.55;2.62;;;;;;;2.41;51.03;95132.48;1817652;77;21379;-54
2021/01/26 02:37:08;;;;;;;6.30;3.17;;;;;;;2.36;51.26;95138.70;1820029;78;21065;-55
2021/01/26 02:39:56;;;;;;;6.33;2.85;;;;;;;2.35;51.58;95137.07;1834924;77;21074;-55
2021/01/26 02:42:39;;;;;;;4.92;2.47;;;;;;;2.38;51.71;95134.77;1816105;77;21078;-55
2021/01/26 02:45:35;;;;;;;3.22;2.17;;;;;;;2.40;51.77;95141.88;1817117;77;21726;-55
2021/01/26 02:48:32;;;;;;;5.33;2.72;;;;;;;2.41;51.94;95140.17;1814328;77;22272;-55
2021/01/26 02:51:17;;;;;;;6.35;3.20;;;;;;;2.41;51.94;95140.17;1814282;79;21580;-55
2021/01/26 02:53:59;;;;;;;6.37;2.90;;;;;;;2.39;51.98;95136.42;1778470;79;21066;-55
2021/01/26 02:56:55;;;;;;;7.00;3.40;;;;;;;2.38;51.98;95141.16;1787583;79;21497;-55
2021/01/26 02:59:58;;;;;;;2.98;2.00;;;;;;;2.33;52.00;95134.23;1777045;79;21105;-55
2021/01/26 03:02:58;;;;;;;2.27;1.70;;;;;;;2.30;52.11;95131.85;1789878;79;21207;-56
2021/01/26 03:05:46;;;;;;;3.00;1.90;;;;;;;2.31;52.22;95142.00;1799522;79;21077;-55
2021/01/26 03:08:40;;;;;;;4.37;2.30;;;;;;;2.28;52.34;95147.30;1780378;80;21050;-56
2021/01/26 03:11:25;;;;;;;7.47;3.00;;;;;;;2.27;52.41;95146.11;1772368;79;21150;-55
2021/01/26 03:13:58;;;;;;;13.98;4.28;;;;;;;2.25;52.45;95154.34;1778115;79;21561;-55
2021/01/26 03:16:26;;;;;;;11.78;4.70;;;;;;;2.20;52.57;95158.45;1795311;79;21210;-55
2021/01/26 03:19:00;;;;;;;9.03;4.10;;;;;;;2.16;52.73;95152.71;1784874;79;21078;-55
2021/01/26 03:21:27;;;;;;;8.80;3.60;;;;;;;2.19;52.75;95157.64;1781856;79;21097;-55
2021/01/26 03:24:01;;;;;;;5.53;3.30;;;;;;;2.23;52.76;95157.00;1809942;79;21046;-55
2021/01/26 03:26:29;;;;;;;7.37;3.83;;;;;;;2.25;52.53;95162.84;1813577;79;21149;-55
2021/01/26 03:28:58;;;;;;;5.10;3.20;;;;;;;2.25;52.50;95162.84;1794158;79;21327;-55
2021/01/26 03:31:30;;;;;;;7.53;4.05;;;;;;;2.27;52.45;95162.31;1775827;79;21470;-56
2021/01/26 03:33:58;;;;;;;6.87;3.70;;;;;;;2.28;52.21;95158.01;1804523;79;21058;-55
2021/01/26 03:36:25;;;;;;;7.15;4.33;;;;;;;2.25;52.13;95159.47;1813545;78;21505;-55
2021/01/26 03:38:53;;;;;;;9.13;4.50;;;;;;;2.22;52.12;95155.38;1795338;79;21057;-55
2021/01/26 03:41:21;;;;;;;8.55;3.85;;;;;;;2.22;52.13;95156.66;1792537;79;21735;-55
2021/01/26 03:43:49;;;;;;;11.40;4.20;;;;;;;2.17;52.09;95158.20;1781339;79;21089;-55
2021/01/26 03:46:28;;;;;;;6.70;3.30;;;;;;;2.14;52.22;95161.41;1799104;79;21045;-55
2021/01/26 03:49:18;;;;;;;7.62;3.42;;;;;;;2.07;52.37;95155.81;1808762;79;21050;-54
2021/01/26 03:52:11;;;;;;;5.62;3.15;;;;;;;2.00;52.65;95148.14;1798652;79;21057;-55
2021/01/26 03:54:44;;;;;;;7.65;3.50;;;;;;;1.99;52.79;95154.16;1806901;79;21440;-54
2021/01/26 03:57:33;;;;;;;10.08;3.92;;;;;;;1.97;52.91;95159.40;1813812;79;21129;-54
2021/01/26 04:00:23;;;;;;;7.55;3.70;;;;;;;1.93;52.97;95156.64;1796774;79;26841;-54
2021/01/26 04:03:22;;;;;;;8.18;3.90;;;;;;;1.79;53.28;95164.30;1803111;79;21125;-56
2021/01/26 04:06:02;;;;;;;14.98;5.55;;;;;;;1.79;53.28;95164.30;1798172;79;21553;-54
2021/01/26 04:08:49;;;;;;;9.17;3.77;;;;;;;1.80;53.68;95167.23;1883778;76;21990;-55
2021/01/26 04:11:41;;;;;;;3.50;2.80;;;;;;;1.67;53.79;95173.52;1829790;77;21463;-55
2021/01/26 04:14:27;;;;;;;3.70;2.42;;;;;;;1.62;53.93;95179.35;1839236;77;21203;-54
2021/01/26 04:16:59;;;;;;;2.52;2.02;;;;;;;1.45;54.22;95196.94;1825850;77;21514;-55
2021/01/26 04:19:30;;;;;;;3.70;2.70;;;;;;;1.36;54.29;95197.45;1840217;77;21029;-55
2021/01/26 04:21:57;;;;;;;5.50;3.10;;;;;;;1.36;54.29;95197.45;1832055;77;21585;-57
2021/01/26 04:24:34;;;;;;;4.03;3.40;;;;;;;1.33;54.49;95207.37;1830104;77;21136;-56
2021/01/26 04:27:17;;;;;;;4.70;2.65;;;;;;;1.34;54.60;95209.03;1836626;77;21522;-55
2021/01/26 04:29:44;;;;;;;2.98;2.67;;;;;;;1.33;54.33;95206.09;1827432;77;20942;-56
2021/01/26 04:32:12;;;;;;;3.22;2.55;;;;;;;1.33;54.33;95206.09;1796382;77;21139;-55
2021/01/26 04:34:40;;;;;;;3.15;2.47;;;;;;;1.31;54.62;95212.22;1799670;77;21069;-56
2021/01/26 04:37:08;;;;;;;3.60;2.50;;;;;;;1.27;54.77;95214.13;1828658;77;21053;-55
2021/01/26 04:39:35;;;;;;;4.20;2.33;;;;;;;1.31;54.91;95227.55;1834074;77;22114;-56
2021/01/26 04:42:22;;;;;;;2.80;2.50;;;;;;;1.31;54.91;95227.55;1849561;77;21108;-55
2021/01/26 04:45:10;;;;;;;4.58;2.60;;;;;;;1.34;54.88;95229.95;1795786;77;21172;-55
2021/01/26 04:47:48;;;;;;;3.10;2.80;;;;;;;1.38;54.85;95231.41;1772155;80;21508;-54
2021/01/26 04:50:48;;;;;;;3.92;2.00;;;;;;;1.41;54.79;95233.33;1734400;81;21081;-54
2021/01/26 04:53:42;;;;;;;3.95;2.80;;;;;;;1.46;54.69;95239.03;1798960;79;21414;-55
2021/01/26 04:56:33;;;;;;;2.60;2.37;;;;;;;1.47;54.72;95247.52;1753181;80;21624;-55
2021/01/26 04:59:36;;;;;;;4.62;2.70;;;;;;;1.50;54.64;95249.06;1753541;80;21581;-55
2021/01/26 05:02:33;;;;;;;3.67;2.77;;;;;;;1.52;54.54;95252.37;1749943;82;21053;-54
2021/01/26 05:05:08;;;;;;;6.50;3.50;;;;;;;1.53;54.38;95257.84;1743616;81;21144;-54
2021/01/26 05:07:50;;;;;;;4.97;3.45;;;;;;;1.53;54.38;95257.84;1759300;81;21148;-55
2021/01/26 05:10:35;;;;;;;8.68;4.47;;;;;;;1.52;54.11;95263.88;1753435;81;21216;-56
2021/01/26 05:13:08;;;;;;;9.53;5.22;;;;;;;1.47;54.36;95261.11;1776798;80;21160;-55
2021/01/26 05:15:39;;;;;;;13.45;7.47;;;;;;;1.45;54.22;95263.40;1732064;81;21186;-56
2021/01/26 05:18:16;;;;;;;8.83;5.25;;;;;;;1.40;54.41;95267.48;1753028;81;21505;-56
2021/01/26 05:20:46;;;;;;;6.60;4.65;;;;;;;1.36;54.45;95269.83;1724628;81;22812;-56
2021/01/26 05:23:18;;;;;;;7.08;4.58;;;;;;;1.33;54.55;95276.84;1726263;82;21104;-56
2021/01/26 05:25:49;;;;;;;9.23;5.03;;;;;;;1.30;54.74;95280.41;1724457;81;21504;-56
2021/01/26 05:28:17;;;;;;;8.93;4.70;;;;;;;1.32;54.99;95287.53;1735074;81;21053;-56
2021/01/26 05:30:53;;;;;;;;;;;;;;;1.33;54.97;95291.71;1756412;81;21120;-54
2021/01/26 05:33:15;;;;;;;337.42;188.00;;;;;;;1.38;55.34;95298.70;1756769;81;21219;-56
2021/01/26 05:35:45;;;;;;;18.27;9.83;;;;;;;1.53;55.23;95302.58;1734724;81;21619;-56
2021/01/26 05:38:12;;;;;;;13.90;7.83;;;;;;;1.65;54.83;95301.91;1728571;81;21160;-54
2021/01/26 05:40:42;;;;;;;9.95;5.45;;;;;;;1.72;54.48;95312.16;1681378;81;21153;-55
2021/01/26 05:43:12;;;;;;;8.18;4.95;;;;;;;1.76;54.13;95317.91;1731084;81;21245;-54
2021/01/26 05:45:42;;;;;;;6.60;4.50;;;;;;;1.84;54.01;95320.87;1759522;80;21448;-55
2021/01/26 05:48:19;;;;;;;3.98;3.27;;;;;;;1.99;52.68;95329.41;1749797;81;21149;-55
2021/01/26 05:50:47;;;;;;;3.65;3.20;;;;;;;1.99;52.68;95325.57;1737841;81;21478;-55
2021/01/26 05:53:31;;;;;;;4.30;3.02;;;;;;;2.07;52.41;95337.94;1727119;81;21076;-57
2021/01/26 05:56:13;;;;;;;3.20;2.70;;;;;;;2.16;51.61;95328.00;1744082;81;21595;-57
2021/01/26 05:58:46;;;;;;;3.72;3.00;;;;;;;2.25;50.56;95343.28;1766647;81;21976;-56
2021/01/26 06:01:32;;;;;;;3.40;2.50;;;;;;;2.25;50.56;95343.28;1743104;81;21077;-56
2021/01/26 06:04:16;;;;;;;223.70;140.00;;;;;;;2.29;50.44;95343.48;1737074;82;21212;-55
2021/01/26 06:06:58;;;;;;;46.73;25.85;;;;;;;2.34;50.33;95349.16;1757600;81;21061;-54
2021/01/26 06:09:38;;;;;;;24.87;10.58;;;;;;;2.51;49.75;95358.41;1758559;81;21061;-57
2021/01/26 06:12:30;;;;;;;11.03;5.03;;;;;;;2.51;49.75;95358.41;1739093;81;21380;-57
2021/01/26 06:15:03;;;;;;;10.55;5.08;;;;;;;2.54;49.34;95356.14;1745268;81;21547;-56
2021/01/26 06:17:35;;;;;;;7.80;5.15;;;;;;;2.56;49.24;95360.71;1737159;81;21582;-57
2021/01/26 06:20:17;;;;;;;10.08;5.20;;;;;;;2.62;49.24;95363.38;1737095;82;21090;-57
2021/01/26 06:22:48;;;;;;;6.62;4.00;;;;;;;2.69;49.29;95374.44;1720235;81;21191;-57
2021/01/26 06:25:26;;;;;;;4.47;3.77;;;;;;;2.74;49.37;95371.61;1765919;81;21202;-58
2021/01/26 06:28:40;;;;;;;6.37;4.42;;;;;;;2.76;49.78;95370.62;1745908;81;21150;-58
2021/01/26 06:31:35;;;;;;;5.28;4.03;;;;;;;2.80;50.26;95380.22;1754088;81;21167;-57
2021/01/26 06:34:52;;;;;;;6.92;4.55;;;;;;;2.80;50.63;95381.50;1712505;82;21098;-57
2021/01/26 06:37:54;;;;;;;5.90;4.22;;;;;;;2.85;50.72;95388.46;1746332;81;21196;-57
2021/01/26 06:40:27;;;;;;;5.40;3.60;;;;;;;2.91;50.50;95390.66;1752030;81;21449;-56
2021/01/26 06:43:25;;;;;;;5.50;3.50;;;;;;;2.99;50.53;95395.78;1737070;81;21067;-57
2021/01/26 06:46:26;;;;;;;5.37;4.08;;;;;;;3.06;50.65;95404.30;1739600;81;21135;-56
2021/01/26 06:49:17;;;;;;;6.55;4.53;;;;;;;3.12;50.79;95410.78;1744470;81;21074;-56
2021/01/26 06:52:20;;;;;;;6.75;4.60;;;;;;;3.15;51.06;95404.67;1737903;81;21064;-55
2021/01/26 06:55:11;;;;;;;7.85;4.42;;;;;;;3.17;51.23;95413.89;1744112;81;23574;-55
2021/01/26 06:58:25;;;;;;;7.85;5.17;;;;;;;3.25;51.41;95417.29;1741793;81;21664;-55
2021/01/26 07:01:21;;;;;;;6.92;4.80;;;;;;;3.32;51.43;95424.97;1741436;81;21136;-56
2021/01/26 07:04:06;;;;;;;9.33;5.62;;;;;;;3.39;51.42;95423.70;1766981;81;21196;-56
2021/01/26 07:07:04;;;;;;;11.20;5.37;;;;;;;3.44;51.46;95430.65;1748773;81;21081;-57
2021/01/26 07:09:57;;;;;;;8.40;4.78;;;;;;;3.55;51.39;95440.70;1799408;78;21538;-55
2021/01/26 07:12:46;;;;;;;8.98;4.90;;;;;;;3.64;51.37;95444.00;1789471;79;21097;-58
2021/01/26 07:15:44;;;;;;;7.97;4.70;;;;;;;4.19;50.79;95446.14;1801599;79;21057;-56
2021/01/26 07:18:29;;;;;;;8.80;5.00;;;;;;;4.44;49.94;95455.69;1792431;79;21222;-56
2021/01/26 07:21:11;;;;;;;7.00;4.37;;;;;;;4.49;49.88;95456.22;1810425;79;21481;-57
2021/01/26 07:24:05;;;;;;;9.00;4.95;;;;;;;4.60;49.71;95461.92;1751011;80;21375;-55
2021/01/26 07:26:48;;;;;;;9.43;5.65;;;;;;;4.90;49.35;95464.70;1764168;80;21089;-56
2021/01/26 07:29:42;;;;;;;5.85;4.70;;;;;;;5.43;48.33;95463.34;1735584;81;21104;-56
2021/01/26 07:32:28;;;;;;;5.55;4.90;;;;;;;5.76;47.53;95467.91;1742083;81;21148;-55
2021/01/26 07:35:14;;;;;;;7.08;4.87;;;;;;;6.27;46.60;95466.97;1735288;79;21614;-56
2021/01/26 07:38:01;;;;;;;7.53;5.12;;;;;;;6.80;45.45;95468.69;1769384;79;21279;-57
2021/01/26 07:40:38;;;;;;;8.45;5.42;;;;;;;7.69;44.01;95474.09;1792089;78;21179;-58
2021/01/26 07:43:35;;;;;;;7.03;5.25;;;;;;;8.29;42.66;95475.09;1789744;78;21064;-56
2021/01/26 07:46:17;;;;;;;7.33;5.55;;;;;;;8.30;42.24;95475.41;1786498;79;21157;-56
2021/01/26 07:49:09;;;;;;;6.55;4.60;;;;;;;7.97;42.24;95478.89;1808537;79;21494;-56
2021/01/26 07:51:52;;;;;;;5.72;4.60;;;;;;;7.52;41.85;95488.77;1802529;78;21268;-57
2021/01/26 07:54:36;;;;;;;7.70;4.97;;;;;;;7.04;42.67;95484.59;1779523;78;21144;-57
2021/01/26 07:57:05;;;;;;;6.83;5.37;;;;;;;6.70;43.31;95488.83;1799057;79;21483;-57
2021/01/26 07:59:35;;;;;;;4.97;4.47;;;;;;;6.45;43.86;95488.83;1785289;80;21118;-56
2021/01/26 08:02:08;;;;;;;6.80;5.17;;;;;;;6.33;43.86;95488.87;1807365;79;21125;-56
2021/01/26 08:04:39;;;;;;;6.85;4.90;;;;;;;6.24;44.48;95488.60;1795456;78;21389;-56
2021/01/26 08:07:06;;;;;;;7.62;5.12;;;;;;;6.06;44.72;95498.45;1810057;78;21481;-56
2021/01/26 08:09:44;;;;;;;8.83;5.37;;;;;;;5.85;45.28;95498.14;1832183;78;21014;-56
2021/01/26 08:12:21;;;;;;;8.70;6.08;;;;;;;5.61;45.81;95507.11;1787977;80;21104;-56
2021/01/26 08:14:51;;;;;;;7.75;5.47;;;;;;;5.40;46.09;95507.28;1797746;79;21053;-55
2021/01/26 08:17:32;;;;;;;7.47;5.83;;;;;;;5.26;46.48;95515.90;1785298;79;21307;-56
2021/01/26 08:20:15;;;;;;;6.97;5.08;;;;;;;5.20;46.75;95517.58;1745857;80;21128;-57
2021/01/26 08:22:45;;;;;;;6.12;5.12;;;;;;;5.11;46.68;95522.88;1754338;80;21517;-56
2021/01/26 08:25:36;;;;;;;7.55;5.70;;;;;;;5.03;47.11;95518.70;1750415;81;21156;-57
2021/01/26 08:28:10;;;;;;;9.75;5.42;;;;;;;4.95;47.29;95523.89;1751485;81;21056;-56
2021/01/26 08:30:49;;;;;;;6.33;4.90;;;;;;;4.87;47.38;95526.14;1756577;81;22585;-57
2021/01/26 08:33:24;;;;;;;8.20;5.33;;;;;;;4.83;47.37;95528.53;1791428;79;21054;-54
2021/01/26 08:36:26;;;;;;;9.33;4.85;;;;;;;4.73;47.61;95526.20;1800800;79;21532;-57
2021/01/26 08:39:01;;;;;;;6.22;4.75;;;;;;;4.68;47.85;95530.81;1783687;79;21048;-55
2021/01/26 08:41:51;;;;;;;7.05;5.10;;;;;;;4.59;47.88;95538.19;1796324;78;21053;-55
2021/01/26 08:44:27;;;;;;;5.87;5.08;;;;;;;4.47;48.14;95545.84;1784984;80;21334;-56
2021/01/26 08:46:56;;;;;;;8.60;5.60;;;;;;;4.35;48.57;95547.44;1802338;79;21045;-56
2021/01/26 08:49:32;;;;;;;7.00;5.58;;;;;;;4.29;48.82;95543.96;1765540;80;21069;-56
2021/01/26 08:52:25;;;;;;;9.08;5.55;;;;;;;4.30;48.53;95549.47;1787756;79;21160;-56
2021/01/26 08:54:55;;;;;;;7.67;4.97;;;;;;;4.24;48.44;95550.66;1799131;79;21628;-56
2021/01/26 08:57:34;;;;;;;4.97;4.03;;;;;;;4.16;48.38;95555.00;1799318;79;21435;-56
2021/01/26 09:00:14;;;;;;;;;;;;;;;4.12;48.48;95556.56;1820346;79;21556;-55
2021/01/26 09:02:44;;;;;;;7.37;4.65;;;;;;;4.15;48.39;95557.20;1787889;79;20222;-55
2021/01/26 09:05:13;;;;;;;6.80;4.90;;;;;;;4.15;48.41;95561.05;1813789;78;21117;-56
2021/01/26 09:07:56;;;;;;;6.75;4.70;;;;;;;4.14;48.40;95566.27;1774998;79;21105;-56
2021/01/26 09:10:38;;;;;;;8.08;4.53;;;;;;;4.15;48.34;95563.62;1810489;79;21384;-57
2021/01/26 09:13:25;;;;;;;6.28;4.67;;;;;;;4.28;48.35;95561.12;1789145;79;21498;-55
2021/01/26 09:18:31;;;;;;;5.87;4.15;;;;;;;5.20;46.58;95569.02;1797308;79;21108;-55
2021/01/26 09:21:03;;;;;;;5.53;4.10;;;;;;;5.64;45.52;95573.81;1793437;78;21585;-55
2021/01/26 09:23:31;;;;;;;5.25;3.92;;;;;;;6.16;44.33;95571.22;1759350;79;21581;-56
2021/01/26 09:26:00;;;;;;;6.15;4.40;;;;;;;7.10;42.23;95570.53;1805547;78;21187;-56
2021/01/26 09:28:33;;;;;;;6.22;4.47;;;;;;;8.27;40.90;95568.24;1777617;80;21078;-56
2021/01/26 09:31:00;;;;;;;5.53;4.30;;;;;;;9.46;38.42;95564.48;1783163;80;21156;-55
2021/01/26 09:33:29;;;;;;;5.67;4.22;;;;;;;9.95;36.88;95566.38;1763727;80;21077;-55
2021/01/26 09:36:04;;;;;;;;;;;;;;;9.69;36.35;95572.44;1797302;79;21466;-57
2021/01/26 09:38:35;;;;;;;5.67;4.00;;;;;;;9.18;36.80;95573.20;1816813;79;20704;-56
2021/01/26 09:41:16;;;;;;;9.18;5.85;;;;;;;8.75;37.52;95576.62;1766850;80;21125;-57
2021/01/26 09:43:47;;;;;;;9.18;5.87;;;;;;;8.43;37.98;95574.34;1732879;81;21068;-56
2021/01/26 09:46:29;;;;;;;8.95;5.97;;;;;;;8.09;38.22;95577.39;1796136;79;21523;-57
2021/01/26 09:49:13;;;;;;;6.17;4.83;;;;;;;7.78;38.84;95577.16;1718046;81;22380;-56
2021/01/26 09:52:00;;;;;;;6.22;4.58;;;;;;;7.49;39.30;95575.47;1799139;79;21156;-58
2021/01/26 09:54:31;;;;;;;6.28;4.03;;;;;;;7.15;39.72;95577.50;1798162;79;21478;-57
2021/01/26 09:57:00;;;;;;;9.15;3.92;;;;;;;6.86;40.20;95578.75;1789351;79;21197;-58
2021/01/26 09:59:31;;;;;;;12.18;4.30;;;;;;;6.74;40.30;95570.16;1815424;79;21207;-57
2021/01/26 10:02:00;;;;;;;6.78;4.12;;;;;;;6.49;40.75;95573.66;1808444;79;22342;-57
2021/01/26 10:04:27;;;;;;;6.40;4.50;;;;;;;6.24;41.16;95576.19;1792637;78;21100;-56
2021/01/26 10:06:59;;;;;;;6.33;3.87;;;;;;;6.04;41.54;95574.98;1809411;79;21620;-56
2021/01/26 10:09:35;;;;;;;3.40;3.05;;;;;;;5.87;41.67;95568.84;1809884;78;21049;-56
2021/01/26 10:12:28;;;;;;;3.85;2.98;;;;;;;5.58;41.64;95582.41;1807115;79;21124;-55
2021/01/26 10:15:29;;;;;;;5.92;3.20;;;;;;;5.37;41.70;95585.94;1817327;79;21604;-56
2021/01/26 10:18:18;;;;;;;5.30;3.00;;;;;;;5.16;41.18;95578.25;1805765;78;21176;-56
2021/01/26 10:20:57;;;;;;;4.37;3.00;;;;;;;4.94;41.19;95586.98;1817388;79;21053;-56
2021/01/26 10:23:36;;;;;;;3.60;2.75;;;;;;;4.78;41.28;95587.94;1810345;78;21041;-57
2021/01/26 10:26:25;;;;;;;4.85;2.98;;;;;;;4.67;41.25;95581.39;1807048;78;26914;-57
2021/01/26 10:29:12;;;;;;;4.47;2.45;;;;;;;4.57;41.29;95579.02;1789501;79;21513;-55
2021/01/26 10:31:55;;;;;;;3.17;2.70;;;;;;;4.52;40.98;95587.03;1787188;79;21633;-57
2021/01/26 10:34:34;;;;;;;4.17;3.12;;;;;;;4.88;41.02;95584.32;1785133;80;21590;-55
2021/01/26 10:37:26;;;;;;;2.85;2.65;;;;;;;5.87;39.45;95577.85;1789899;79;21073;-56
2021/01/26 10:40:19;;;;;;;3.17;2.75;;;;;;;6.29;37.80;95574.58;1817557;78;21149;-57
2021/01/26 10:42:58;;;;;;;3.17;2.55;;;;;;;6.13;37.64;95583.02;1817545;79;21356;-57
2021/01/26 10:45:38;;;;;;;4.95;2.98;;;;;;;5.89;37.67;95580.70;1815271;79;21060;-57
2021/01/26 10:48:23;;;;;;;6.62;2.90;;;;;;;5.54;37.99;95583.05;1785864;80;21140;-56
2021/01/26 10:50:54;;;;;;;7.25;2.50;;;;;;;5.15;38.63;95586.06;1789190;79;21154;-57
2021/01/26 10:53:49;;;;;;;2.50;2.25;;;;;;;4.86;38.95;95582.78;1789726;78;21554;-57
2021/01/26 10:56:16;;;;;;;4.60;2.65;;;;;;;4.63;39.55;95590.20;1794514;78;21208;-57
2021/01/26 10:58:45;;;;;;;3.50;2.75;;;;;;;4.43;40.03;95593.55;1785024;80;21064;-56
2021/01/26 11:01:17;;;;;;;5.45;2.70;;;;;;;4.32;40.45;95597.23;1721652;82;21133;-54
2021/01/26 11:03:44;;;;;;;3.25;2.55;;;;;;;4.29;40.82;95596.61;1722384;82;21100;-56
2021/01/26 11:06:13;;;;;;;3.72;2.95;;;;;;;4.35;40.74;95597.52;1800562;78;22762;-56
2021/01/26 11:08:43;;;;;;;3.15;2.80;;;;;;;4.42;40.86;95593.64;1796610;78;22221;-55
2021/01/26 11:11:15;;;;;;;3.22;2.50;;;;;;;4.51;40.78;95594.83;1791702;79;21212;-57
2021/01/26 11:13:42;;;;;;;4.03;2.92;;;;;;;4.55;40.25;95591.14;1781935;80;21114;-56
2021/01/26 11:16:09;;;;;;;3.37;3.00;;;;;;;4.52;40.80;95594.74;1787988;79;22006;-58
2021/01/26 11:18:38;;;;;;;4.03;2.40;;;;;;;4.57;40.54;95590.14;1735056;80;21204;-56
2021/01/26 11:21:06;;;;;;;3.40;2.47;;;;;;;4.61;40.32;95588.20;1736995;80;21364;-55
2021/01/26 11:23:34;;;;;;;4.50;2.62;;;;;;;4.65;40.14;95588.82;1762983;79;21088;-56
2021/01/26 11:26:03;;;;;;;3.22;2.35;;;;;;;4.68;40.29;95584.30;1764572;79;21152;-55
2021/01/26 11:28:33;;;;;;;2.85;2.42;;;;;;;4.72;39.93;95587.50;1769694;80;21151;-55
2021/01/26 11:31:01;;;;;;;3.50;2.52;;;;;;;4.65;39.54;95590.11;1774837;80;21590;-55
2021/01/26 11:33:31;;;;;;;3.98;3.25;;;;;;;4.56;39.83;95595.37;1783534;79;21559;-57
2021/01/26 11:35:59;;;;;;;3.72;2.80;;;;;;;4.52;39.96;95600.31;1788481;79;28100;-56
2021/01/26 11:38:27;;;;;;;3.47;2.70;;;;;;;4.55;40.14;95598.84;1802206;77;21418;-57
2021/01/26 11:40:56;;;;;;;6.92;2.35;;;;;;;4.68;40.17;95599.72;1808379;79;21080;-57
2021/01/26 11:43:24;;;;;;;4.85;2.60;;;;;;;4.85;39.57;95596.11;1803033;79;21056;-56
2021/01/26 11:45:56;;;;;;;2.90;2.40;;;;;;;4.92;39.12;95599.11;1796678;79;22055;-57
2021/01/26 11:48:25;;;;;;;3.22;2.62;;;;;;;4.93;39.31;95602.02;1728472;82;21481;-56
2021/01/26 11:50:55;;;;;;;4.50;3.00;;;;;;;4.90;39.11;95604.78;1764904;79;21167;-60
2021/01/26 11:53:24;;;;;;;4.75;3.12;;;;;;;4.85;39.08;95598.68;1760655;79;21592;-57
2021/01/26 11:55:55;;;;;;;3.40;3.10;;;;;;;4.87;39.14;95612.25;1752703;79;21143;-58
2021/01/26 11:58:22;;;;;;;3.87;2.70;;;;;;;4.91;39.34;95606.45;1772560;80;21219;-59
2021/01/26 12:00:50;;;;;;;2.80;2.40;;;;;;;4.92;39.28;95610.20;1762635;80;21170;-56
2021/01/26 12:03:18;;;;;;;2.80;2.50;;;;;;;4.89;39.35;95612.16;1774909;79;21083;-56
2021/01/26 12:05:46;;;;;;;3.83;2.83;;;;;;;4.83;39.32;95610.78;1797171;79;21029;-57
2021/01/26 12:08:14;;;;;;;4.75;2.60;;;;;;;4.85;39.41;95609.40;1743748;80;21509;-57
2021/01/26 12:10:43;;;;;;;3.67;2.55;;;;;;;4.87;39.48;95617.39;1723135;79;21243;-57
2021/01/26 12:13:12;;;;;;;6.97;2.45;;;;;;;4.89;38.88;95614.25;1730421;82;21584;-56
2021/01/26 12:15:41;;;;;;;2.77;2.20;;;;;;;4.85;38.02;95614.10;1722383;82;21114;-57
2021/01/26 12:18:11;;;;;;;2.40;2.20;;;;;;;4.82;37.60;95610.87;1726465;82;21195;-56
2021/01/26 12:20:45;;;;;;;7.67;2.98;;;;;;;4.70;37.95;95615.86;1718954;82;21096;-61
2021/01/26 12:23:12;;;;;;;3.22;2.62;;;;;;;4.66;38.21;95622.59;1718636;81;21605;-57
2021/01/26 12:25:40;;;;;;;54.95;29.27;;;;;;;4.64;38.41;95625.27;1690888;82;21192;-58
2021/01/26 12:28:09;;;;;;;58.08;15.60;;;;;;;4.67;40.93;95628.08;1721212;82;21619;-57
2021/01/26 12:30:38;;;;;;;99.10;20.20;;;;;;;4.76;38.96;95621.91;1712073;82;21247;-59
2021/01/26 12:33:07;;;;;;;7.65;3.37;;;;;;;4.77;38.88;95622.75;1713076;82;21836;-56